Terminal Aerodrome Forecast
Issued by NWS Upton, NY

Home | Current Version | Previous Version | Text Only | Print | Product List | Glossary On
Versions: 1 2 3 4 5 6 7 8 9 10 11 12 13 14 15 16 17 18 19 20 21 22 23 24 25 26 27 28
000
FTUS41 KOKX 261127
TAFBDR
TAF
KBDR 261127Z 2612/2712 05010KT P6SM VCSH SCT015 BKN050
      TEMPO 2612/2614 BKN015
     FM261400 07012KT P6SM VCSH BKN025 OVC050
     FM261800 08013G19KT P6SM BKN020 OVC050
     FM262200 09012G18KT 6SM -RA BR BKN015 OVC035
     FM270200 07009KT 3SM -DZ BR SCT004 OVC008
     FM270600 09010KT 1/2SM -DZ FG BKN004 OVC008=

USA.gov is the U.S. government's official web portal to all federal, state and local government web resources and services.